createdAt,value
2023-05-10T00:02:54.029Z,5.40
2023-05-10T00:06:57.264Z,5.65
2023-05-10T00:11:00.046Z,4.80
2023-05-10T00:15:03.039Z,6.03
2023-05-10T00:19:06.840Z,6.18
2023-05-10T00:23:09.922Z,5.88
2023-05-10T00:27:12.648Z,6.63
2023-05-10T00:31:15.972Z,6.82
2023-05-10T00:35:20.624Z,6.68
2023-05-10T00:39:23.353Z,5.75
2023-05-10T00:43:26.377Z,6.07
2023-05-10T00:47:30.087Z,6.13
2023-05-10T00:51:34.480Z,6.80
2023-05-10T00:55:37.822Z,6.20
2023-05-10T00:59:40.064Z,6.47
2023-05-10T01:03:43.837Z,6.05
2023-05-10T01:07:48.326Z,5.43
2023-05-10T01:11:52.316Z,7.55
2023-05-10T01:15:55.576Z,6.50
2023-05-10T01:19:58.684Z,6.10
2023-05-10T01:24:31.221Z,7.05
2023-05-10T01:29:00.937Z,6.57
2023-05-10T01:33:15.475Z,6.57
2023-05-10T01:37:23.152Z,6.50
2023-05-10T01:41:32.843Z,8.05
2023-05-10T01:49:47.470Z,6.32
2023-05-10T01:53:51.385Z,5.82
2023-05-10T01:58:02.461Z,7.10
2023-05-10T02:02:08.358Z,6.85
2023-05-10T02:06:15.282Z,7.57
2023-05-10T02:10:19.414Z,6.75
2023-05-10T02:14:25.655Z,8.77
2023-05-10T02:18:29.922Z,7.80
2023-05-10T02:22:35.394Z,7.72
2023-05-10T02:26:40.577Z,6.80
2023-05-10T02:30:44.107Z,5.90
2023-05-10T02:38:54.354Z,6.72
2023-05-10T02:42:59.963Z,7.50
2023-05-10T02:47:03.031Z,6.20
2023-05-10T02:51:09.726Z,5.95
2023-05-10T02:55:17.273Z,7.10
2023-05-10T02:59:20.437Z,7.47
2023-05-10T03:03:25.442Z,7.18
2023-05-10T03:07:28.519Z,7.53
2023-05-10T03:11:46.698Z,6.53
2023-05-10T03:15:58.572Z,7.10
2023-05-10T03:20:12.938Z,6.88
2023-05-10T03:24:17.347Z,6.78
2023-05-10T03:28:23.813Z,6.82
2023-05-10T03:32:28.376Z,6.30
2023-05-10T03:36:31.134Z,5.90
2023-05-10T03:40:33.956Z,5.63
2023-05-10T03:44:38.474Z,7.85
2023-05-10T03:48:41.103Z,6.43
2023-05-10T03:52:44.703Z,7.00
2023-05-10T03:56:49.058Z,5.65
2023-05-10T04:00:53.561Z,5.15
2023-05-10T04:04:57.587Z,5.68
2023-05-10T04:09:05.161Z,6.63
2023-05-10T04:13:08.661Z,5.72
2023-05-10T04:17:13.470Z,5.28
2023-05-10T04:21:16.804Z,5.70
2023-05-10T04:25:19.970Z,5.00
2023-05-10T04:33:27.180Z,5.07
2023-05-10T04:37:30.125Z,5.43
2023-05-10T04:41:33.102Z,5.47
2023-05-10T04:45:39.353Z,5.95
2023-05-10T04:49:43.712Z,5.50
2023-05-10T04:53:54.149Z,5.22
2023-05-10T04:58:04.752Z,4.65
2023-05-10T05:02:07.892Z,5.03
2023-05-10T05:06:12.072Z,5.82
2023-05-10T05:10:15.783Z,5.43
2023-05-10T05:14:18.998Z,5.22
2023-05-10T05:18:22.111Z,5.32
2023-05-10T05:22:28.884Z,5.47
2023-05-10T05:26:31.900Z,5.35
2023-05-10T05:30:34.658Z,5.82
2023-05-10T05:34:37.672Z,5.00
2023-05-10T05:38:42.151Z,4.63
2023-05-10T05:42:45.286Z,4.70
2023-05-10T05:46:48.204Z,5.13
2023-05-10T05:50:51.613Z,4.40
2023-05-10T05:54:56.060Z,3.70
2023-05-10T05:58:59.031Z,4.03
2023-05-10T06:03:02.134Z,4.38
2023-05-10T06:07:05.351Z,5.03
2023-05-10T06:11:09.434Z,3.75
2023-05-10T06:15:13.104Z,3.50
2023-05-10T06:19:15.963Z,3.53
2023-05-10T06:23:19.535Z,3.63
2023-05-10T06:27:24.332Z,3.25
2023-05-10T06:31:27.682Z,3.25
2023-05-10T06:35:30.943Z,3.22
2023-05-10T06:39:34.025Z,3.00
2023-05-10T06:43:41.184Z,3.53
2023-05-10T06:47:44.567Z,3.20
2023-05-10T06:51:47.708Z,2.72
2023-05-10T06:55:52.028Z,2.92
2023-05-10T06:59:57.363Z,2.92
2023-05-10T07:04:00.205Z,2.97
2023-05-10T07:08:03.397Z,2.90
2023-05-10T07:12:08.236Z,2.95
2023-05-10T07:16:14.751Z,3.03
2023-05-10T07:20:17.950Z,2.80
2023-05-10T07:24:21.208Z,2.78
2023-05-10T07:28:25.428Z,2.78
2023-05-10T07:32:30.118Z,2.85
2023-05-10T07:36:33.666Z,2.83
2023-05-10T07:40:37.287Z,3.13
2023-05-10T07:44:40.399Z,2.30
2023-05-10T07:48:44.957Z,2.38
2023-05-10T07:52:50.783Z,2.30
2023-05-10T07:56:53.937Z,2.80
2023-05-10T08:00:57.722Z,2.25
2023-05-10T08:05:01.908Z,2.80
2023-05-10T08:09:04.821Z,2.35
2023-05-10T08:13:07.898Z,3.92
2023-05-10T08:17:10.793Z,2.33
2023-05-10T08:21:15.154Z,2.63
2023-05-10T08:25:18.691Z,2.38
2023-05-10T08:29:21.901Z,2.67
2023-05-10T08:33:25.138Z,2.88
2023-05-10T08:37:33.442Z,2.22
2023-05-10T08:41:39.071Z,2.42
2023-05-10T08:45:43.447Z,2.22
2023-05-10T08:49:49.282Z,2.65
2023-05-10T08:53:54.167Z,2.17
2023-05-10T08:57:57.387Z,2.40
2023-05-10T09:02:01.307Z,2.42
2023-05-10T09:06:04.496Z,2.53
2023-05-10T09:10:14.215Z,2.70
2023-05-10T09:14:21.035Z,2.08
2023-05-10T09:18:25.561Z,2.00
2023-05-10T09:22:29.914Z,2.47
2023-05-10T09:26:34.863Z,2.30
2023-05-10T09:30:38.651Z,2.10
2023-05-10T09:34:43.522Z,2.33
2023-05-10T09:38:50.152Z,2.55
2023-05-10T09:42:59.434Z,2.40
2023-05-10T09:47:02.697Z,2.45
2023-05-10T09:51:05.665Z,2.58
2023-05-10T09:55:11.864Z,2.45
2023-05-10T09:59:21.024Z,3.65
2023-05-10T10:03:25.520Z,2.10
2023-05-10T10:07:28.987Z,2.78
2023-05-10T10:11:32.573Z,2.50
2023-05-10T10:15:37.376Z,2.30
2023-05-10T10:19:40.562Z,3.55
2023-05-10T10:23:44.749Z,2.72
2023-05-10T10:28:05.844Z,2.10
2023-05-10T10:32:23.132Z,2.15
2023-05-10T10:36:28.352Z,2.20
2023-05-10T10:40:34.856Z,2.53
2023-05-10T10:44:40.472Z,2.40
2023-05-10T10:48:50.337Z,2.30
2023-05-10T10:52:54.282Z,2.75
2023-05-10T10:57:17.633Z,2.42
2023-05-10T11:01:21.923Z,3.42
2023-05-10T11:05:40.072Z,2.65
2023-05-10T11:09:42.885Z,2.20
2023-05-10T11:13:50.866Z,2.45
2023-05-10T11:22:18.171Z,2.72
2023-05-10T11:26:24.314Z,2.70
2023-05-10T11:30:27.551Z,2.38
2023-05-10T11:34:34.892Z,2.30
2023-05-10T11:38:39.379Z,2.42
2023-05-10T11:42:42.448Z,2.50
2023-05-10T11:46:45.633Z,2.63
2023-05-10T11:50:49.023Z,2.30
2023-05-10T11:54:55.194Z,2.20
2023-05-10T11:58:59.800Z,2.50
2023-05-10T12:03:04.234Z,2.65
2023-05-10T12:07:07.500Z,2.33
2023-05-10T12:11:12.682Z,1.90
2023-05-10T12:15:21.273Z,2.45
2023-05-10T12:19:24.351Z,2.85
2023-05-10T12:23:29.021Z,2.22
2023-05-10T12:31:57.967Z,2.40
2023-05-10T12:36:02.519Z,2.70
2023-05-10T12:40:12.005Z,2.92
2023-05-10T12:44:16.305Z,2.85
2023-05-10T12:48:19.170Z,2.30
2023-05-10T12:52:24.366Z,2.35
2023-05-10T12:56:27.264Z,2.40
2023-05-10T13:00:31.383Z,2.95
2023-05-10T13:04:34.386Z,2.50
2023-05-10T13:08:37.358Z,2.70
2023-05-10T13:12:40.262Z,2.80
2023-05-10T13:16:45.984Z,2.47
2023-05-10T13:20:50.841Z,2.90
2023-05-10T13:24:53.868Z,2.75
2023-05-10T13:28:57.199Z,2.58
2023-05-10T13:33:01.952Z,2.70
2023-05-10T13:37:05.496Z,2.67
2023-05-10T13:41:09.517Z,2.80
2023-05-10T13:45:14.382Z,2.60
2023-05-10T13:49:18.675Z,2.88
2023-05-10T13:53:22.107Z,3.28
2023-05-10T13:57:25.277Z,3.45
2023-05-10T14:01:28.178Z,2.60
2023-05-10T14:05:32.717Z,2.63
2023-05-10T14:09:35.723Z,2.30
2023-05-10T14:13:38.383Z,2.80
2023-05-10T14:21:45.688Z,2.40
2023-05-10T14:25:48.904Z,3.25
2023-05-10T14:29:51.906Z,2.78
2023-05-10T14:33:55.286Z,2.70
2023-05-10T14:37:59.770Z,2.33
2023-05-10T14:42:03.824Z,2.35
2023-05-10T14:46:07.012Z,2.67
2023-05-10T14:50:10.812Z,2.97
2023-05-10T14:54:15.970Z,2.90
2023-05-10T14:58:19.831Z,2.53
2023-05-10T15:02:22.585Z,2.03
2023-05-10T15:06:29.621Z,2.58
2023-05-10T15:14:54.905Z,2.83
2023-05-10T15:18:58.036Z,2.50
2023-05-10T15:23:01.061Z,3.03
2023-05-10T15:27:03.968Z,2.53
2023-05-10T15:31:08.321Z,2.60
2023-05-10T15:35:11.818Z,2.80
2023-05-10T15:39:14.675Z,2.90
2023-05-10T15:43:17.774Z,2.92
2023-05-10T15:47:24.273Z,2.90
2023-05-10T15:51:27.807Z,2.83
2023-05-10T15:55:31.243Z,2.80
2023-05-10T15:59:35.949Z,2.80
2023-05-10T16:03:40.544Z,2.47
2023-05-10T16:07:44.684Z,2.80
2023-05-10T16:11:47.458Z,3.10
2023-05-10T16:15:50.597Z,2.90
2023-05-10T16:19:54.991Z,2.80
2023-05-10T16:23:58.106Z,2.42
2023-05-10T16:28:01.853Z,2.30
2023-05-10T16:32:04.912Z,3.03
2023-05-10T16:36:09.659Z,2.50
2023-05-10T16:40:13.383Z,2.75
2023-05-10T16:44:18.970Z,2.58
2023-05-10T16:48:24.107Z,2.65
2023-05-10T16:52:29.054Z,2.67
2023-05-10T16:56:32.055Z,2.50
2023-05-10T17:00:35.349Z,2.35
2023-05-10T17:04:38.441Z,2.78
2023-05-10T17:08:43.450Z,2.90
2023-05-10T17:12:47.162Z,3.15
2023-05-10T17:16:57.492Z,2.90
2023-05-10T17:21:00.412Z,2.65
2023-05-10T17:25:05.728Z,2.70
2023-05-10T17:29:09.211Z,2.97
2023-05-10T17:33:12.431Z,2.92
2023-05-10T17:37:17.621Z,3.03
2023-05-10T17:41:22.366Z,3.20
2023-05-10T17:45:28.122Z,3.13
2023-05-10T17:49:31.478Z,3.35
2023-05-10T17:53:35.205Z,3.53
2023-05-10T17:57:39.395Z,4.03
2023-05-10T18:01:43.114Z,4.30
2023-05-10T18:05:51.511Z,4.25
2023-05-10T18:09:54.643Z,4.13
2023-05-10T18:13:59.528Z,4.30
2023-05-10T18:18:06.013Z,5.00
2023-05-10T18:22:11.206Z,4.20
2023-05-10T18:26:14.380Z,3.90
2023-05-10T18:30:19.174Z,4.00
2023-05-10T18:34:22.717Z,4.20
2023-05-10T18:38:25.833Z,3.88
2023-05-10T18:42:28.942Z,4.18
2023-05-10T18:46:36.035Z,4.13
2023-05-10T18:50:39.737Z,4.63
2023-05-10T18:54:42.939Z,4.65
2023-05-10T18:58:46.381Z,4.50
2023-05-10T19:02:50.940Z,4.97
2023-05-10T19:06:54.246Z,4.50
2023-05-10T19:10:57.108Z,4.15
2023-05-10T19:19:04.296Z,4.25
2023-05-10T19:23:10.270Z,4.05
2023-05-10T19:27:14.634Z,3.75
2023-05-10T19:31:17.929Z,4.00
2023-05-10T19:35:22.713Z,4.35
2023-05-10T19:39:26.324Z,5.22
2023-05-10T19:47:34.970Z,4.65
2023-05-10T19:51:38.998Z,5.53
2023-05-10T19:55:42.330Z,5.50
2023-05-10T20:03:48.396Z,5.97
2023-05-10T20:07:53.197Z,6.55
2023-05-10T20:11:56.899Z,6.35
2023-05-10T20:16:02.355Z,6.35
2023-05-10T20:20:05.630Z,5.20
2023-05-10T20:24:10.382Z,4.57
2023-05-10T20:28:13.401Z,5.30
2023-05-10T20:32:24.716Z,5.75
2023-05-10T20:36:27.828Z,3.83
2023-05-10T20:40:33.356Z,4.70
2023-05-10T20:44:36.495Z,4.63
2023-05-10T20:48:39.720Z,4.57
2023-05-10T20:52:42.993Z,4.22
2023-05-10T21:00:52.008Z,4.32
2023-05-10T21:04:57.121Z,4.50
2023-05-10T21:09:03.678Z,4.65
2023-05-10T21:13:07.982Z,4.00
2023-05-10T21:17:11.280Z,4.30
2023-05-10T21:21:14.503Z,4.18
2023-05-10T21:29:22.412Z,4.20
2023-05-10T21:33:25.345Z,6.43
2023-05-10T21:41:31.341Z,4.18
2023-05-10T21:45:36.702Z,4.22
2023-05-10T21:49:39.316Z,3.60
2023-05-10T21:53:42.214Z,4.97
2023-05-10T21:57:45.639Z,4.07
2023-05-10T22:01:50.206Z,4.40
2023-05-10T22:05:53.426Z,4.65
2023-05-10T22:09:57.366Z,4.03
2023-05-10T22:14:00.893Z,4.70
2023-05-10T22:18:05.624Z,4.90
2023-05-10T22:22:08.875Z,4.07
2023-05-10T22:26:14.311Z,5.25
2023-05-10T22:30:18.108Z,4.07
2023-05-10T22:34:23.114Z,4.32
2023-05-10T22:38:26.449Z,4.88
2023-05-10T22:42:29.377Z,4.82
2023-05-10T22:46:33.542Z,4.00
2023-05-10T22:50:38.491Z,5.07
2023-05-10T22:54:41.180Z,4.20
2023-05-10T22:58:44.426Z,4.50
2023-05-10T23:02:47.960Z,4.20
2023-05-10T23:10:55.904Z,4.38
2023-05-10T23:14:58.875Z,4.00
2023-05-10T23:19:02.281Z,4.10
2023-05-10T23:23:07.153Z,4.03
2023-05-10T23:27:09.937Z,4.47
2023-05-10T23:31:12.900Z,4.18
2023-05-10T23:35:17.740Z,4.35
2023-05-10T23:39:22.037Z,4.22
2023-05-10T23:43:26.788Z,3.88
2023-05-10T23:47:29.774Z,3.85
2023-05-10T23:51:33.105Z,3.97
2023-05-10T23:55:37.968Z,4.13
2023-05-10T23:59:40.549Z,4.32
